Time;durP1;ratioP1;P1;durP2;ratioP2;P2;SDS_P1;SDS_P2;PMS_P1;PMS_P2;Temp;Humidity;BMP_temperature;BMP_pressure;BME280_temperature;BME280_humidity;BME280_pressure;Samples;Min_cycle;Max_cycle;Signal;HPM_P1;HPM_P2
2022/07/09 00:01:31;;;;;;;0.40;0.30;;;;;;;20.42;100.00;95021.81;5131819;28;20458;-63
2022/07/09 00:03:59;;;;;;;1.00;0.50;;;;;;;20.21;100.00;95013.88;5132245;28;20422;-63
2022/07/09 00:06:28;;;;;;;0.40;0.30;;;;;;;20.39;100.00;95025.22;5132151;28;20518;-63
2022/07/09 00:08:57;;;;;;;0.50;0.30;;;;;;;20.03;100.00;94991.78;5132171;28;20430;-63
2022/07/09 00:11:25;;;;;;;0.57;0.50;;;;;;;20.34;100.00;95010.06;5132161;28;20458;-62
2022/07/09 00:13:54;;;;;;;0.40;0.30;;;;;;;20.33;100.00;95010.41;5132435;28;20539;-62
2022/07/09 00:16:22;;;;;;;0.40;0.30;;;;;;;20.07;100.00;95010.72;5132139;28;20663;-63
2022/07/09 00:18:52;;;;;;;0.40;0.30;;;;;;;19.95;100.00;95011.50;5132917;27;20431;-63
2022/07/09 00:21:20;;;;;;;1.00;0.90;;;;;;;20.09;100.00;95003.09;5136679;27;20454;-62
2022/07/09 00:23:49;;;;;;;0.57;0.37;;;;;;;19.50;100.00;94989.25;5136385;27;20461;-63
2022/07/09 00:26:18;;;;;;;0.60;0.57;;;;;;;19.39;100.00;94990.78;5135523;27;21085;-62
2022/07/09 00:28:46;;;;;;;0.50;0.30;;;;;;;19.53;100.00;94988.59;5136261;27;20980;-63
2022/07/09 00:31:15;;;;;;;0.40;0.30;;;;;;;20.12;100.00;94978.19;5136534;27;20488;-62
2022/07/09 00:33:43;;;;;;;0.50;0.30;;;;;;;20.34;100.00;94979.69;5135592;27;20804;-63
2022/07/09 00:36:13;;;;;;;0.50;0.30;;;;;;;20.38;100.00;94985.94;5136062;27;20521;-63
2022/07/09 00:38:41;;;;;;;0.70;0.40;;;;;;;20.38;100.00;94978.66;5136456;27;20533;-63
2022/07/09 00:41:10;;;;;;;0.40;0.30;;;;;;;20.22;100.00;94967.78;5135111;27;20454;-63
2022/07/09 00:43:38;;;;;;;0.50;0.40;;;;;;;20.39;100.00;94972.16;5136041;27;20454;-63
2022/07/09 00:46:06;;;;;;;0.50;0.40;;;;;;;20.62;100.00;94973.22;5135455;27;20560;-63
2022/07/09 00:48:35;;;;;;;0.80;0.40;;;;;;;20.58;100.00;94971.56;5135887;27;20425;-63
2022/07/09 00:51:04;;;;;;;0.77;0.77;;;;;;;20.74;100.00;94975.13;5135707;27;20517;-63
2022/07/09 00:53:34;;;;;;;0.50;0.40;;;;;;;20.42;100.00;94903.38;5135298;27;20429;-63
2022/07/09 00:56:04;;;;;;;0.40;0.20;;;;;;;20.90;100.00;94978.63;5135490;27;20465;-63
2022/07/09 00:58:34;;;;;;;0.50;0.50;;;;;;;20.81;100.00;94986.88;5135066;27;20510;-63
2022/07/09 01:01:04;;;;;;;0.50;0.30;;;;;;;20.53;100.00;94990.63;5135675;27;20458;-63
2022/07/09 01:03:32;;;;;;;0.80;0.80;;;;;;;20.61;100.00;94978.97;5135117;27;20862;-63
2022/07/09 01:06:01;;;;;;;0.50;0.37;;;;;;;20.87;100.00;94980.09;5135451;27;20553;-63
2022/07/09 01:08:29;;;;;;;0.60;0.40;;;;;;;20.69;100.00;94984.22;5135101;27;20526;-63
2022/07/09 01:11:00;;;;;;;0.57;0.50;;;;;;;20.44;100.00;94993.44;5134546;27;20422;-63
2022/07/09 01:13:29;;;;;;;0.53;0.53;;;;;;;20.26;100.00;94984.84;5134992;27;20434;-63
2022/07/09 01:15:57;;;;;;;1.10;0.63;;;;;;;20.47;100.00;94986.59;5135162;27;20561;-63
2022/07/09 01:18:26;;;;;;;1.03;1.03;;;;;;;20.43;100.00;94988.41;5134234;27;20411;-63
2022/07/09 01:20:56;;;;;;;0.77;0.40;;;;;;;20.58;100.00;94999.28;5136264;27;20423;-62
2022/07/09 01:23:26;;;;;;;0.57;0.57;;;;;;;20.31;100.00;94999.19;5135216;27;20419;-63
2022/07/09 01:25:56;;;;;;;0.53;0.53;;;;;;;20.47;100.00;94995.47;5135453;27;20944;-63
2022/07/09 01:28:25;;;;;;;0.40;0.30;;;;;;;20.73;100.00;95005.84;5135274;27;20513;-63
2022/07/09 01:30:53;;;;;;;0.50;0.30;;;;;;;20.02;100.00;94963.31;5133596;27;20513;-63
2022/07/09 01:33:22;;;;;;;0.93;0.87;;;;;;;20.62;100.00;95012.81;5135047;27;20505;-62
2022/07/09 01:35:50;;;;;;;0.80;0.40;;;;;;;20.68;100.00;95030.31;5133791;27;20418;-62
2022/07/09 01:38:20;;;;;;;0.50;0.40;;;;;;;20.19;100.00;95034.94;5134867;27;20765;-63
2022/07/09 01:40:48;;;;;;;0.40;0.30;;;;;;;20.12;100.00;95046.25;5134837;27;20462;-62
2022/07/09 01:43:17;;;;;;;0.80;0.50;;;;;;;20.24;100.00;95051.66;5134847;27;20469;-63
2022/07/09 01:45:45;;;;;;;0.50;0.30;;;;;;;20.46;100.00;95057.72;5134681;27;20560;-63
2022/07/09 01:48:13;;;;;;;0.50;0.40;;;;;;;20.30;100.00;95059.53;5134326;27;20498;-64
2022/07/09 01:50:42;;;;;;;1.07;0.67;;;;;;;20.31;100.00;95053.03;5134294;27;20521;-63
2022/07/09 01:53:11;;;;;;;0.50;0.40;;;;;;;20.26;100.00;95052.13;5134540;27;20423;-63
2022/07/09 01:55:40;;;;;;;1.73;0.60;;;;;;;20.57;100.00;95056.94;5134863;27;20471;-63
2022/07/09 01:58:09;;;;;;;0.50;0.40;;;;;;;20.36;100.00;95050.13;5134140;27;20857;-63
2022/07/09 02:00:37;;;;;;;0.67;0.67;;;;;;;20.00;100.00;95046.25;5134746;27;20427;-63
2022/07/09 02:03:05;;;;;;;1.33;0.83;;;;;;;19.99;100.00;95047.38;5134819;27;20518;-63
2022/07/09 02:05:34;;;;;;;0.50;0.37;;;;;;;20.25;100.00;95045.19;5134048;27;20490;-63
2022/07/09 02:08:02;;;;;;;0.50;0.40;;;;;;;20.50;100.00;95045.16;5134464;27;20483;-63
2022/07/09 02:10:31;;;;;;;0.60;0.60;;;;;;;20.62;100.00;95045.94;5134171;27;20496;-63
2022/07/09 02:13:01;;;;;;;0.50;0.30;;;;;;;20.39;100.00;95039.44;5133647;27;20471;-62
2022/07/09 02:15:29;;;;;;;0.50;0.30;;;;;;;20.24;100.00;95046.28;5133474;27;20470;-63
2022/07/09 02:17:58;;;;;;;0.43;0.37;;;;;;;20.29;100.00;95039.13;5134036;27;20433;-63
2022/07/09 02:20:27;;;;;;;0.50;0.40;;;;;;;19.91;100.00;95039.41;5134115;27;20454;-63
2022/07/09 02:22:55;;;;;;;0.50;0.30;;;;;;;19.97;100.00;95046.91;5133859;27;20475;-63
2022/07/09 02:25:24;;;;;;;0.70;0.67;;;;;;;20.28;100.00;95049.09;5134243;27;20515;-63
2022/07/09 02:27:52;;;;;;;0.40;0.20;;;;;;;20.54;100.00;95049.53;5133602;27;20522;-63
2022/07/09 02:30:22;;;;;;;0.70;0.70;;;;;;;20.41;100.00;95060.66;5133725;27;20447;-63
2022/07/09 02:32:50;;;;;;;1.67;0.47;;;;;;;20.14;100.00;95053.97;5133790;27;21002;-63
2022/07/09 02:35:18;;;;;;;0.70;0.40;;;;;;;20.10;100.00;95053.88;5133873;27;20422;-63
2022/07/09 02:37:47;;;;;;;0.57;0.37;;;;;;;19.94;100.00;95055.66;5134027;27;20865;-63
2022/07/09 02:40:15;;;;;;;0.50;0.40;;;;;;;20.01;100.00;95050.50;5133424;27;20502;-63
2022/07/09 02:42:44;;;;;;;0.50;0.47;;;;;;;19.84;100.00;95044.53;5132882;27;20509;-63
2022/07/09 02:45:12;;;;;;;0.57;0.30;;;;;;;19.56;100.00;95047.03;5133204;27;20849;-63
2022/07/09 02:47:42;;;;;;;0.40;0.30;;;;;;;19.53;100.00;95050.44;5133155;27;20434;-63
2022/07/09 02:50:10;;;;;;;0.50;0.50;;;;;;;19.62;100.00;95049.22;5132931;27;20491;-63
2022/07/09 02:52:39;;;;;;;0.73;0.50;;;;;;;19.97;100.00;95049.59;5133287;27;20418;-63
2022/07/09 02:55:08;;;;;;;0.50;0.40;;;;;;;20.36;100.00;95045.53;5133592;27;20510;-62
2022/07/09 02:57:36;;;;;;;0.50;0.33;;;;;;;19.85;100.00;95046.13;5133332;27;20792;-63
2022/07/09 03:00:06;;;;;;;0.60;0.50;;;;;;;19.60;100.00;95045.28;5133072;27;20572;-63
2022/07/09 03:02:35;;;;;;;0.50;0.50;;;;;;;19.96;100.00;95042.66;5133011;27;20939;-63
2022/07/09 03:05:06;;;;;;;0.70;0.30;;;;;;;20.25;100.00;95041.69;5132992;27;20843;-64
2022/07/09 03:07:34;;;;;;;0.40;0.30;;;;;;;20.41;100.00;95037.22;5132681;27;20506;-63
2022/07/09 03:10:02;;;;;;;0.40;0.30;;;;;;;20.34;100.00;95031.59;5132897;27;20459;-63
2022/07/09 03:12:31;;;;;;;10.43;0.63;;;;;;;20.17;100.00;95043.34;5132795;27;20521;-63
2022/07/09 03:14:59;;;;;;;0.40;0.30;;;;;;;19.67;100.00;95045.53;5132827;27;20504;-63
2022/07/09 03:17:28;;;;;;;0.40;0.20;;;;;;;19.89;100.00;95031.66;5132339;27;20517;-63
2022/07/09 03:19:56;;;;;;;0.70;0.70;;;;;;;20.05;100.00;95045.25;5133015;27;20443;-63
2022/07/09 03:22:26;;;;;;;0.40;0.20;;;;;;;19.95;100.00;95045.69;5133048;27;20426;-63
2022/07/09 03:24:54;;;;;;;0.47;0.30;;;;;;;19.17;100.00;95047.56;5132101;27;20513;-63
2022/07/09 03:27:23;;;;;;;0.40;0.30;;;;;;;19.29;100.00;95045.72;5132198;27;20525;-63
2022/07/09 03:29:51;;;;;;;0.43;0.27;;;;;;;19.75;100.00;95047.34;5132668;27;20470;-63
2022/07/09 03:32:21;;;;;;;0.70;0.57;;;;;;;19.82;100.00;95042.19;5132333;27;20521;-62
2022/07/09 03:34:49;;;;;;;0.50;0.40;;;;;;;19.20;100.00;95047.66;5133738;27;20521;-62
2022/07/09 03:37:18;;;;;;;0.40;0.30;;;;;;;19.50;100.00;95045.72;5134025;27;20445;-62
2022/07/09 03:39:48;;;;;;;0.40;0.20;;;;;;;19.52;100.00;95043.47;5131944;27;20418;-62
2022/07/09 03:42:17;;;;;;;0.47;0.30;;;;;;;19.85;100.00;95035.34;5132445;27;20466;-62
2022/07/09 03:44:45;;;;;;;0.50;0.43;;;;;;;19.39;100.00;95033.78;5132692;27;20840;-61
2022/07/09 03:47:13;;;;;;;0.50;0.30;;;;;;;19.09;100.00;95027.72;5132235;27;20510;-60
2022/07/09 03:49:42;;;;;;;0.50;0.30;;;;;;;18.99;100.00;95036.19;5132583;28;20434;-60
2022/07/09 03:52:10;;;;;;;0.50;0.30;;;;;;;19.27;100.00;95039.09;5132554;28;20497;-60
2022/07/09 03:54:49;;;;;;;0.40;0.30;;;;;;;19.85;100.00;95033.47;5135067;27;20422;-60
2022/07/09 03:57:17;;;;;;;0.40;0.30;;;;;;;19.26;100.00;95041.00;5137326;27;20455;-61
2022/07/09 03:59:46;;;;;;;0.40;0.30;;;;;;;18.74;100.00;94999.56;5137264;27;20457;-60
2022/07/09 04:02:14;;;;;;;0.40;0.30;;;;;;;19.27;100.00;95045.25;5137290;27;20454;-60
2022/07/09 04:04:43;;;;;;;1.00;0.40;;;;;;;19.36;100.00;95040.59;5136846;27;20518;-60
2022/07/09 04:07:11;;;;;;;0.40;0.20;;;;;;;19.46;100.00;95029.44;5136989;27;20469;-61
2022/07/09 04:09:40;;;;;;;0.40;0.20;;;;;;;19.24;100.00;95031.69;5137038;27;20505;-61
2022/07/09 04:12:10;;;;;;;0.43;0.30;;;;;;;19.17;100.00;94988.47;5136693;27;20513;-61
2022/07/09 04:14:39;;;;;;;0.60;0.40;;;;;;;19.57;100.00;95021.75;5136637;27;20470;-61
2022/07/09 04:17:07;;;;;;;0.53;0.30;;;;;;;19.91;100.00;95028.66;5136546;27;20458;-61
2022/07/09 04:19:35;;;;;;;0.50;0.30;;;;;;;20.08;100.00;95026.53;5136545;27;20438;-61
2022/07/09 04:22:04;;;;;;;0.40;0.30;;;;;;;19.86;100.00;95016.19;5136524;27;20466;-61
2022/07/09 04:24:33;;;;;;;0.60;0.47;;;;;;;19.49;100.00;94963.47;5136480;27;20879;-61
2022/07/09 04:27:01;;;;;;;0.40;0.30;;;;;;;20.01;100.00;95009.38;5136681;27;20561;-61
2022/07/09 04:29:31;;;;;;;0.40;0.30;;;;;;;19.99;100.00;95001.63;5136447;27;20477;-60
2022/07/09 04:32:00;;;;;;;1.50;1.40;;;;;;;19.50;100.00;95008.06;5136303;27;21018;-61
2022/07/09 04:34:28;;;;;;;0.50;0.40;;;;;;;19.22;100.00;95012.44;5136026;27;20457;-60
2022/07/09 04:36:56;;;;;;;0.97;0.77;;;;;;;19.19;100.00;95007.72;5136181;27;20529;-61
2022/07/09 04:39:25;;;;;;;0.50;0.30;;;;;;;18.89;100.00;94924.56;5136204;27;20462;-61
2022/07/09 04:41:53;;;;;;;1.30;0.40;;;;;;;19.68;100.00;94993.31;5136164;27;20840;-61
2022/07/09 04:44:22;;;;;;;0.50;0.30;;;;;;;19.92;100.00;95000.63;5135249;27;20454;-61
2022/07/09 04:46:51;;;;;;;0.57;0.40;;;;;;;20.19;100.00;94995.34;5136348;27;20599;-61
2022/07/09 04:49:20;;;;;;;0.50;0.50;;;;;;;20.02;100.00;94992.91;5135811;27;20487;-61
2022/07/09 04:51:49;;;;;;;0.77;0.77;;;;;;;19.81;100.00;94994.13;5135761;27;20422;-61
2022/07/09 04:54:17;;;;;;;0.63;0.63;;;;;;;19.41;100.00;94983.97;5135806;27;20419;-61
2022/07/09 04:56:46;;;;;;;0.40;0.30;;;;;;;19.57;100.00;95006.41;5136030;27;20819;-61
2022/07/09 04:59:14;;;;;;;0.50;0.40;;;;;;;19.93;100.00;95004.88;5135756;27;20509;-61
2022/07/09 05:01:43;;;;;;;0.40;0.30;;;;;;;19.87;100.00;94998.94;5135586;27;20429;-62
2022/07/09 05:04:13;;;;;;;0.43;0.30;;;;;;;19.77;100.00;94996.69;5135892;27;20503;-62
2022/07/09 05:06:41;;;;;;;0.50;0.40;;;;;;;19.51;100.00;94983.53;5135648;27;20427;-62
2022/07/09 05:09:10;;;;;;;0.57;0.47;;;;;;;19.74;100.00;94975.84;5135417;27;20462;-62
2022/07/09 05:11:38;;;;;;;0.50;0.47;;;;;;;20.12;100.00;94987.06;5135787;27;20498;-62
2022/07/09 05:14:06;;;;;;;0.70;0.63;;;;;;;19.80;100.00;94974.50;5135553;27;20494;-62
2022/07/09 05:16:35;;;;;;;0.40;0.30;;;;;;;19.67;100.00;94972.13;5135530;27;20507;-62
2022/07/09 05:19:04;;;;;;;0.50;0.40;;;;;;;19.57;100.00;94978.72;5135342;27;20509;-62
2022/07/09 05:21:34;;;;;;;0.50;0.40;;;;;;;19.38;100.00;94979.25;5135525;27;20427;-62
2022/07/09 05:24:02;;;;;;;0.40;0.30;;;;;;;19.53;100.00;94991.28;5135296;27;20454;-62
2022/07/09 05:26:31;;;;;;;0.40;0.30;;;;;;;19.87;100.00;94990.88;5135257;27;20426;-62
2022/07/09 05:28:59;;;;;;;0.53;0.30;;;;;;;20.07;100.00;94978.44;5135565;27;20553;-62
2022/07/09 05:31:28;;;;;;;0.50;0.30;;;;;;;19.97;100.00;94978.88;5135145;27;20866;-62
2022/07/09 05:34:02;;;;;;;0.70;0.70;;;;;;;20.48;100.00;94988.97;5134440;27;20434;-62
2022/07/09 05:36:30;;;;;;;0.40;0.27;;;;;;;20.62;100.00;94991.28;5135079;27;20479;-62
2022/07/09 05:39:01;;;;;;;0.50;0.30;;;;;;;20.04;100.00;94985.25;5134482;27;20883;-62
2022/07/09 05:41:29;;;;;;;0.50;0.40;;;;;;;20.15;100.00;94981.00;5135264;27;20471;-62
2022/07/09 05:43:57;;;;;;;0.50;0.30;;;;;;;20.32;100.00;94979.22;5134899;27;20431;-62
2022/07/09 05:46:26;;;;;;;0.50;0.40;;;;;;;20.10;100.00;94956.22;5134799;27;20473;-61
2022/07/09 05:48:54;;;;;;;0.40;0.30;;;;;;;19.76;100.00;94973.59;5135436;27;20474;-61
2022/07/09 05:51:23;;;;;;;0.40;0.30;;;;;;;20.10;100.00;94965.09;5134309;27;20466;-61
2022/07/09 05:53:51;;;;;;;0.50;0.30;;;;;;;20.35;100.00;94973.16;5134812;27;20431;-61
2022/07/09 05:56:21;;;;;;;0.60;0.50;;;;;;;20.40;100.00;94964.84;5134648;27;20493;-61
2022/07/09 05:58:49;;;;;;;0.40;0.30;;;;;;;20.69;100.00;94967.28;5134328;27;20932;-61
2022/07/09 06:01:18;;;;;;;0.50;0.40;;;;;;;20.70;100.00;94966.91;5134187;27;20501;-61
2022/07/09 06:03:54;;;;;;;0.40;0.27;;;;;;;20.95;100.00;94953.38;5134870;27;20422;-62
2022/07/09 06:06:22;;;;;;;0.40;0.30;;;;;;;20.95;100.00;94956.09;5134584;27;20415;-61
2022/07/09 06:08:51;;;;;;;1.93;1.30;;;;;;;20.61;100.00;94955.50;5134565;27;20462;-63
2022/07/09 06:11:21;;;;;;;0.50;0.40;;;;;;;20.51;100.00;94944.44;5134372;27;20423;-59
2022/07/09 06:13:50;;;;;;;0.50;0.40;;;;;;;20.26;100.00;94947.16;5134147;27;20510;-59
2022/07/09 06:16:18;;;;;;;0.57;0.53;;;;;;;20.29;100.00;94942.25;5133557;27;20454;-57
2022/07/09 06:18:47;;;;;;;0.50;0.40;;;;;;;20.67;100.00;94943.38;5134181;27;20430;-56
2022/07/09 06:21:15;;;;;;;0.50;0.30;;;;;;;20.47;100.00;94935.44;5133984;27;20509;-56
2022/07/09 06:23:44;;;;;;;0.47;0.33;;;;;;;20.46;100.00;94934.69;5134124;27;20754;-57
2022/07/09 06:26:12;;;;;;;0.40;0.20;;;;;;;20.64;100.00;94937.88;5133964;27;20470;-57
2022/07/09 06:28:42;;;;;;;0.47;0.47;;;;;;;20.80;100.00;94938.72;5134228;27;20545;-57
2022/07/09 06:31:10;;;;;;;0.50;0.40;;;;;;;20.82;100.00;94936.50;5134331;27;20481;-56
2022/07/09 06:33:39;;;;;;;0.40;0.20;;;;;;;20.75;100.00;94925.50;5133983;27;20465;-56
2022/07/09 06:36:08;;;;;;;0.50;0.47;;;;;;;20.92;100.00;94934.06;5134441;27;20451;-56
2022/07/09 06:39:44;;;;;;;0.50;0.40;;;;;;;21.07;100.00;94931.81;5134074;27;20518;-56
2022/07/09 06:41:25;;;;;;;0.40;0.30;;;;;;;21.40;100.00;94924.97;5133541;27;20529;-56
2022/07/09 06:43:55;;;;;;;0.43;0.37;;;;;;;21.37;100.00;94912.22;5133801;27;20514;-56
2022/07/09 06:46:23;;;;;;;0.70;0.40;;;;;;;21.67;100.00;94920.66;5133924;27;20421;-55
2022/07/09 06:48:52;;;;;;;0.50;0.50;;;;;;;21.80;100.00;94924.03;5133494;27;21014;-55
2022/07/09 06:51:20;;;;;;;0.57;0.33;;;;;;;22.04;100.00;94918.44;5133630;27;20423;-55
2022/07/09 06:53:49;;;;;;;0.50;0.43;;;;;;;22.49;100.00;94918.69;5133891;27;20505;-55
2022/07/09 06:56:17;;;;;;;0.50;0.50;;;;;;;22.40;100.00;94858.72;5133376;27;20459;-55
2022/07/09 06:58:45;;;;;;;0.50;0.50;;;;;;;22.53;100.00;94924.97;5133600;27;20529;-55
2022/07/09 07:01:15;;;;;;;0.60;0.50;;;;;;;22.91;100.00;94918.03;5133363;27;20466;-55
2022/07/09 07:03:44;;;;;;;0.50;0.30;;;;;;;23.01;100.00;94914.75;5133372;27;20479;-55
2022/07/09 07:06:12;;;;;;;0.50;0.40;;;;;;;22.84;100.00;94921.38;5133626;27;20461;-59
2022/07/09 07:08:41;;;;;;;0.40;0.30;;;;;;;23.02;100.00;94916.31;5133190;27;20553;-58
2022/07/09 07:11:09;;;;;;;0.50;0.50;;;;;;;22.98;100.00;94920.84;5133254;27;20916;-58
2022/07/09 07:13:38;;;;;;;0.50;0.30;;;;;;;23.43;100.00;94918.25;5132817;27;20968;-58
2022/07/09 07:16:07;;;;;;;0.40;0.30;;;;;;;23.71;100.00;94916.03;5133713;27;20433;-57
2022/07/09 07:18:37;;;;;;;0.67;0.67;;;;;;;23.36;100.00;94918.13;5132953;27;20411;-57
2022/07/09 07:21:06;;;;;;;0.50;0.40;;;;;;;23.66;100.00;94912.84;5133385;27;20842;-57
2022/07/09 07:23:35;;;;;;;0.50;0.40;;;;;;;23.82;100.00;94917.00;5133359;27;20454;-57
2022/07/09 07:26:03;;;;;;;1.33;0.40;;;;;;;23.66;100.00;94918.25;5133266;27;20514;-57
2022/07/09 07:28:32;;;;;;;0.50;0.40;;;;;;;23.66;100.00;94910.91;5132825;27;20548;-57
2022/07/09 07:31:01;;;;;;;0.60;0.60;;;;;;;23.55;100.00;94912.69;5132890;27;20897;-57
2022/07/09 07:33:30;;;;;;;0.50;0.40;;;;;;;23.76;100.00;94915.72;5132515;27;20427;-57
2022/07/09 07:36:00;;;;;;;0.50;0.40;;;;;;;23.26;100.00;94907.88;5132602;27;20932;-56
2022/07/09 07:38:28;;;;;;;0.40;0.40;;;;;;;23.43;100.00;94918.25;5132764;27;20459;-56
2022/07/09 07:40:56;;;;;;;4.00;0.40;;;;;;;23.43;100.00;94912.09;5130380;27;21016;-57
2022/07/09 07:43:25;;;;;;;0.60;0.47;;;;;;;22.99;100.00;94914.31;5132671;27;20450;-56
2022/07/09 07:45:53;;;;;;;0.50;0.30;;;;;;;23.03;100.00;94915.94;5132565;27;20430;-57
2022/07/09 07:48:22;;;;;;;0.40;0.30;;;;;;;23.38;100.00;94918.53;5132551;27;20494;-57
2022/07/09 07:50:50;;;;;;;0.50;0.40;;;;;;;23.09;100.00;94916.44;5132585;28;20414;-57
2022/07/09 07:53:20;;;;;;;0.40;0.30;;;;;;;22.93;100.00;94915.75;5132703;28;20446;-57
2022/07/09 07:55:48;;;;;;;0.50;0.50;;;;;;;23.25;100.00;94917.91;5132579;28;20425;-57
2022/07/09 07:58:17;;;;;;;0.50;0.40;;;;;;;22.72;100.00;94921.50;5132889;28;20422;-57
2022/07/09 08:00:45;;;;;;;0.53;0.53;;;;;;;22.92;100.00;94920.34;5132272;28;20426;-57
2022/07/09 08:03:14;;;;;;;0.40;0.20;;;;;;;23.21;100.00;94927.88;5133324;28;20441;-57
2022/07/09 08:05:42;;;;;;;1.57;0.60;;;;;;;23.36;100.00;94928.94;5134379;28;20419;-56
2022/07/09 08:08:11;;;;;;;0.50;0.30;;;;;;;22.89;100.00;94931.13;5132445;28;20430;-57
2022/07/09 08:10:41;;;;;;;0.50;0.40;;;;;;;23.03;100.00;94921.34;5132794;28;20511;-57
2022/07/09 08:13:11;;;;;;;0.43;0.33;;;;;;;22.85;100.00;94925.63;5132704;28;20426;-57
2022/07/09 08:15:40;;;;;;;0.50;0.30;;;;;;;23.05;100.00;94923.69;5132201;28;20898;-57
2022/07/09 08:18:12;;;;;;;1.23;0.50;;;;;;;23.10;100.00;94923.41;5132421;28;20426;-57
2022/07/09 08:20:41;;;;;;;0.60;0.60;;;;;;;23.21;100.00;94924.41;5132483;28;20430;-57
2022/07/09 08:23:10;;;;;;;0.40;0.30;;;;;;;23.15;100.00;94928.53;5132677;28;20507;-56
2022/07/09 08:25:39;;;;;;;0.40;0.30;;;;;;;22.96;100.00;94912.34;5132291;28;20463;-57
2022/07/09 08:28:08;;;;;;;0.43;0.40;;;;;;;22.95;100.00;94918.88;5132451;28;20426;-57
2022/07/09 08:30:37;;;;;;;0.70;0.40;;;;;;;22.77;100.00;94913.91;5132393;28;20885;-57
2022/07/09 08:33:05;;;;;;;0.50;0.30;;;;;;;22.66;100.00;94926.44;5132693;28;20434;-57
2022/07/09 08:35:41;;;;;;;0.50;0.30;;;;;;;22.81;100.00;94930.19;5132569;28;20449;-57
2022/07/09 08:38:09;;;;;;;0.70;0.70;;;;;;;22.90;100.00;94932.66;5132502;28;20514;-58
2022/07/09 08:40:38;;;;;;;0.70;0.60;;;;;;;22.86;100.00;94926.41;5134399;27;20450;-58
2022/07/09 08:43:11;;;;;;;0.50;0.40;;;;;;;22.67;100.00;94935.28;5136184;27;21176;-58
2022/07/09 08:45:42;;;;;;;0.50;0.30;;;;;;;22.91;100.00;94942.34;5136342;27;20454;-58
2022/07/09 08:48:10;;;;;;;0.40;0.30;;;;;;;23.23;100.00;94939.13;5136028;27;20440;-58
2022/07/09 08:50:41;;;;;;;0.40;0.40;;;;;;;23.40;100.00;94945.25;5135985;27;20547;-58
2022/07/09 08:53:11;;;;;;;0.60;0.40;;;;;;;23.12;100.00;94948.19;5136179;27;20422;-58
2022/07/09 08:55:40;;;;;;;0.40;0.30;;;;;;;22.75;100.00;94956.72;5136098;27;20435;-58
2022/07/09 08:58:13;;;;;;;0.50;0.30;;;;;;;22.32;100.00;94951.50;5135624;27;20426;-59
2022/07/09 09:00:41;;;;;;;0.80;0.67;;;;;;;21.64;100.00;94952.91;5135706;27;20521;-59
2022/07/09 09:03:10;;;;;;;0.40;0.30;;;;;;;21.73;100.00;94959.69;5135984;27;20542;-59
2022/07/09 09:05:39;;;;;;;0.40;0.30;;;;;;;21.88;100.00;94960.88;5135916;27;20465;-59
2022/07/09 09:08:19;;;;;;;0.57;0.57;;;;;;;22.12;100.00;94964.16;5135431;27;20445;-59
2022/07/09 09:10:48;;;;;;;0.40;0.30;;;;;;;22.36;100.00;94941.56;5135510;27;20522;-59
2022/07/09 09:13:17;;;;;;;0.40;0.40;;;;;;;22.29;100.00;94963.00;5135187;27;20541;-58
2022/07/09 09:15:46;;;;;;;0.50;0.40;;;;;;;22.55;100.00;94963.19;5135094;27;20513;-58
2022/07/09 09:18:14;;;;;;;0.40;0.30;;;;;;;22.99;100.00;94962.97;5135695;27;20462;-58
2022/07/09 09:20:46;;;;;;;0.40;0.30;;;;;;;22.98;100.00;94958.69;5135001;27;20415;-58
2022/07/09 09:23:18;;;;;;;0.50;0.40;;;;;;;22.62;100.00;94946.38;5135248;27;20465;-58
2022/07/09 09:25:46;;;;;;;0.40;0.30;;;;;;;22.51;100.00;94962.34;5135071;27;20414;-59
2022/07/09 09:28:14;;;;;;;0.40;0.30;;;;;;;22.89;100.00;94958.13;5135043;27;20537;-59
2022/07/09 09:30:46;;;;;;;6.30;0.70;;;;;;;22.27;100.00;94881.56;5135335;27;20557;-59
2022/07/09 09:33:18;;;;;;;0.80;0.80;;;;;;;22.61;100.00;94950.19;5134983;27;20438;-58
2022/07/09 09:35:46;;;;;;;0.90;0.77;;;;;;;22.50;100.00;94949.97;5135201;27;20471;-59
2022/07/09 09:38:15;;;;;;;0.40;0.30;;;;;;;22.79;100.00;94951.38;5134877;27;20462;-59
2022/07/09 09:40:47;;;;;;;0.60;0.40;;;;;;;22.34;100.00;94951.91;5134894;27;20522;-59
2022/07/09 09:43:22;;;;;;;0.40;0.40;;;;;;;22.52;100.00;94947.69;5134625;27;20521;-69
2022/07/09 09:45:56;;;;;;;0.63;0.63;;;;;;;22.67;100.00;94956.91;5134719;27;20472;-69
2022/07/09 09:48:24;;;;;;;0.43;0.37;;;;;;;22.95;100.00;94943.19;5134690;27;20466;-70
2022/07/09 09:50:59;;;;;;;0.50;0.30;;;;;;;22.64;100.00;94953.00;5134397;27;20458;-70
2022/07/09 09:53:28;;;;;;;0.50;0.40;;;;;;;22.54;100.00;94952.75;5134261;27;20527;-69
2022/07/09 09:55:58;;;;;;;0.40;0.30;;;;;;;22.46;100.00;94953.72;5133690;27;20461;-70
2022/07/09 09:58:26;;;;;;;0.50;0.30;;;;;;;22.43;100.00;94951.72;5134596;27;20514;-71
2022/07/09 10:00:56;;;;;;;0.50;0.30;;;;;;;22.60;100.00;94951.31;5134203;27;20487;-70
2022/07/09 10:03:25;;;;;;;0.40;0.30;;;;;;;22.85;100.00;94962.66;5134273;27;20814;-70
2022/07/09 10:05:53;;;;;;;0.50;0.40;;;;;;;22.53;100.00;94953.88;5134102;27;20475;-69
2022/07/09 10:08:22;;;;;;;0.50;0.30;;;;;;;22.93;100.00;94958.97;5134416;27;20877;-70
2022/07/09 10:10:53;;;;;;;0.50;0.30;;;;;;;22.97;100.00;94966.03;5133915;27;20454;-69
2022/07/09 10:13:22;;;;;;;1.33;1.33;;;;;;;22.41;100.00;94965.59;5134321;27;20511;-69
2022/07/09 10:15:51;;;;;;;3.20;0.57;;;;;;;22.10;100.00;94960.25;5134198;27;20549;-70
2022/07/09 10:18:21;;;;;;;3.80;0.60;;;;;;;22.23;100.00;94963.63;5135815;27;20510;-70
2022/07/09 10:20:57;;;;;;;0.60;0.50;;;;;;;21.88;100.00;94963.56;5135283;27;20465;-69
2022/07/09 10:23:26;;;;;;;5.17;0.60;;;;;;;21.86;100.00;94972.00;5132991;27;20466;-70
2022/07/09 10:25:56;;;;;;;0.40;0.40;;;;;;;21.75;100.00;94975.56;5133844;27;20510;-69
2022/07/09 10:28:26;;;;;;;0.50;0.43;;;;;;;21.32;100.00;94981.75;5133760;27;20438;-70
2022/07/09 10:30:56;;;;;;;4.00;1.00;;;;;;;21.49;100.00;94979.53;5133570;27;20573;-70
2022/07/09 10:33:34;;;;;;;0.73;0.73;;;;;;;21.24;100.00;94986.19;5133174;27;20419;-70
2022/07/09 10:36:12;;;;;;;0.90;0.80;;;;;;;21.69;100.00;94976.94;5133557;27;20430;-70
2022/07/09 10:38:40;;;;;;;0.80;0.80;;;;;;;21.11;100.00;94990.06;5133490;27;20464;-71
2022/07/09 10:41:09;;;;;;;5.70;0.53;;;;;;;21.27;100.00;94993.59;5133517;27;20462;-71
2022/07/09 10:43:44;;;;;;;1.57;0.60;;;;;;;21.01;100.00;94995.91;5133773;27;20777;-74
2022/07/09 10:46:14;;;;;;;0.70;0.70;;;;;;;21.12;100.00;94996.22;5133718;27;20520;-74
2022/07/09 10:48:45;;;;;;;1.23;0.60;;;;;;;20.81;100.00;94996.88;5134004;27;20439;-76
2022/07/09 10:51:19;;;;;;;0.53;0.43;;;;;;;20.93;100.00;95004.91;5133530;27;21010;-75
2022/07/09 10:53:47;;;;;;;0.40;0.30;;;;;;;21.41;100.00;95020.13;5133563;27;20434;-60
2022/07/09 10:56:18;;;;;;;0.50;0.50;;;;;;;21.53;100.00;95001.97;5133498;27;20475;-59
2022/07/09 10:58:48;;;;;;;0.50;0.30;;;;;;;21.91;100.00;95014.13;5133430;27;20936;-59
2022/07/09 11:01:21;;;;;;;0.40;0.30;;;;;;;20.99;100.00;95017.00;5133356;27;20533;-59
2022/07/09 11:03:53;;;;;;;0.50;0.40;;;;;;;20.30;100.00;94959.94;5133092;27;20923;-60
2022/07/09 11:06:22;;;;;;;0.67;0.67;;;;;;;20.40;100.00;95018.69;5133571;27;20422;-60
2022/07/09 11:08:50;;;;;;;0.40;0.30;;;;;;;20.46;100.00;95017.34;5133255;27;20447;-60
2022/07/09 11:11:22;;;;;;;0.50;0.40;;;;;;;20.47;100.00;95030.47;5133316;27;20454;-60
2022/07/09 11:13:51;;;;;;;0.60;0.30;;;;;;;20.52;100.00;95032.94;5133319;27;20535;-61
2022/07/09 11:16:23;;;;;;;0.50;0.40;;;;;;;20.65;100.00;95028.31;5133132;27;20460;-60
2022/07/09 11:18:55;;;;;;;0.70;0.60;;;;;;;20.98;100.00;95012.75;5131709;27;21161;-60
2022/07/09 11:21:24;;;;;;;0.60;0.57;;;;;;;20.60;100.00;95017.78;5132609;27;20908;-59
2022/07/09 11:23:52;;;;;;;0.47;0.40;;;;;;;20.47;100.00;95017.00;5133373;27;21099;-59
2022/07/09 11:26:21;;;;;;;0.70;0.70;;;;;;;20.96;100.00;95019.59;5133010;27;20441;-58
2022/07/09 11:28:51;;;;;;;1.73;0.70;;;;;;;21.30;100.00;95019.06;5133044;27;20554;-57
2022/07/09 11:31:20;;;;;;;0.40;0.30;;;;;;;21.57;100.00;95023.66;5132991;27;20478;-58
2022/07/09 11:36:40;;;;;;;0.50;0.40;;;;;;;21.82;100.00;95024.28;5132779;27;20469;-58